sensor_id;sensor_type;location;lat;lon;timestamp;P1;durP1;ratioP1;P2;durP2;ratioP2
27802;SDS011;15182;48.174;11.562;2022-12-28T00:02:24;4.83;;;4.70;;
27802;SDS011;15182;48.174;11.562;2022-12-28T00:04:55;4.30;;;4.20;;
27802;SDS011;15182;48.174;11.562;2022-12-28T00:07:27;4.27;;;4.07;;
27802;SDS011;15182;48.174;11.562;2022-12-28T00:09:58;4.43;;;4.13;;
27802;SDS011;15182;48.174;11.562;2022-12-28T00:12:28;4.40;;;4.30;;
27802;SDS011;15182;48.174;11.562;2022-12-28T00:14:59;4.67;;;4.40;;
27802;SDS011;15182;48.174;11.562;2022-12-28T00:17:32;4.97;;;4.67;;
27802;SDS011;15182;48.174;11.562;2022-12-28T00:20:03;5.50;;;5.30;;
27802;SDS011;15182;48.174;11.562;2022-12-28T00:22:37;4.70;;;4.50;;
27802;SDS011;15182;48.174;11.562;2022-12-28T00:25:08;5.10;;;4.90;;
27802;SDS011;15182;48.174;11.562;2022-12-28T00:27:40;4.73;;;4.53;;
27802;SDS011;15182;48.174;11.562;2022-12-28T00:30:11;4.67;;;4.47;;
27802;SDS011;15182;48.174;11.562;2022-12-28T00:32:45;4.17;;;4.07;;
27802;SDS011;15182;48.174;11.562;2022-12-28T00:35:18;4.63;;;4.53;;
27802;SDS011;15182;48.174;11.562;2022-12-28T00:37:51;4.60;;;4.50;;
27802;SDS011;15182;48.174;11.562;2022-12-28T00:40:22;4.17;;;4.07;;
27802;SDS011;15182;48.174;11.562;2022-12-28T00:42:56;4.50;;;4.40;;
27802;SDS011;15182;48.174;11.562;2022-12-28T00:45:29;4.27;;;4.07;;
27802;SDS011;15182;48.174;11.562;2022-12-28T00:48:01;4.60;;;4.50;;
27802;SDS011;15182;48.174;11.562;2022-12-28T00:50:33;5.30;;;4.90;;
27802;SDS011;15182;48.174;11.562;2022-12-28T00:53:04;4.77;;;4.57;;
27802;SDS011;15182;48.174;11.562;2022-12-28T00:55:37;4.83;;;4.63;;
27802;SDS011;15182;48.174;11.562;2022-12-28T00:58:09;4.97;;;4.70;;
27802;SDS011;15182;48.174;11.562;2022-12-28T01:00:42;4.40;;;4.30;;
27802;SDS011;15182;48.174;11.562;2022-12-28T01:03:16;4.17;;;4.07;;
27802;SDS011;15182;48.174;11.562;2022-12-28T01:05:47;4.10;;;4.10;;
27802;SDS011;15182;48.174;11.562;2022-12-28T01:08:18;4.37;;;4.27;;
27802;SDS011;15182;48.174;11.562;2022-12-28T01:10:50;5.07;;;4.77;;
27802;SDS011;15182;48.174;11.562;2022-12-28T01:13:21;4.47;;;4.33;;
27802;SDS011;15182;48.174;11.562;2022-12-28T01:15:52;4.30;;;4.00;;
27802;SDS011;15182;48.174;11.562;2022-12-28T01:18:26;4.20;;;4.10;;
27802;SDS011;15182;48.174;11.562;2022-12-28T01:21:00;3.87;;;3.77;;
27802;SDS011;15182;48.174;11.562;2022-12-28T01:23:41;4.63;;;4.33;;
27802;SDS011;15182;48.174;11.562;2022-12-28T01:26:14;4.43;;;4.33;;
27802;SDS011;15182;48.174;11.562;2022-12-28T01:28:46;4.10;;;4.10;;
27802;SDS011;15182;48.174;11.562;2022-12-28T01:31:17;4.40;;;4.20;;
27802;SDS011;15182;48.174;11.562;2022-12-28T01:33:51;4.03;;;3.93;;
27802;SDS011;15182;48.174;11.562;2022-12-28T01:36:23;4.30;;;4.20;;
27802;SDS011;15182;48.174;11.562;2022-12-28T01:39:02;4.27;;;4.17;;
27802;SDS011;15182;48.174;11.562;2022-12-28T01:41:36;4.43;;;4.33;;
27802;SDS011;15182;48.174;11.562;2022-12-28T01:44:36;3.80;;;3.70;;
27802;SDS011;15182;48.174;11.562;2022-12-28T01:47:13;3.63;;;3.63;;
27802;SDS011;15182;48.174;11.562;2022-12-28T01:49:50;3.90;;;3.90;;
27802;SDS011;15182;48.174;11.562;2022-12-28T01:52:28;4.10;;;4.00;;
27802;SDS011;15182;48.174;11.562;2022-12-28T01:55:04;3.50;;;3.40;;
27802;SDS011;15182;48.174;11.562;2022-12-28T01:57:41;4.10;;;3.90;;
27802;SDS011;15182;48.174;11.562;2022-12-28T02:00:16;4.50;;;4.40;;
27802;SDS011;15182;48.174;11.562;2022-12-28T02:02:50;4.73;;;4.47;;
27802;SDS011;15182;48.174;11.562;2022-12-28T02:05:27;3.90;;;3.80;;
27802;SDS011;15182;48.174;11.562;2022-12-28T02:08:06;3.67;;;3.67;;
27802;SDS011;15182;48.174;11.562;2022-12-28T02:10:42;4.13;;;4.03;;
27802;SDS011;15182;48.174;11.562;2022-12-28T02:13:15;3.90;;;3.80;;
27802;SDS011;15182;48.174;11.562;2022-12-28T02:15:49;4.00;;;4.00;;
27802;SDS011;15182;48.174;11.562;2022-12-28T02:18:21;4.17;;;4.07;;
27802;SDS011;15182;48.174;11.562;2022-12-28T02:21:02;3.83;;;3.77;;
27802;SDS011;15182;48.174;11.562;2022-12-28T02:24:08;3.70;;;3.70;;
27802;SDS011;15182;48.174;11.562;2022-12-28T02:27:12;3.70;;;3.60;;
27802;SDS011;15182;48.174;11.562;2022-12-28T02:29:58;3.90;;;3.80;;
27802;SDS011;15182;48.174;11.562;2022-12-28T02:32:35;3.77;;;3.63;;
27802;SDS011;15182;48.174;11.562;2022-12-28T02:35:27;4.20;;;4.10;;
27802;SDS011;15182;48.174;11.562;2022-12-28T02:38:05;3.97;;;3.77;;
27802;SDS011;15182;48.174;11.562;2022-12-28T02:40:41;3.60;;;3.60;;
27802;SDS011;15182;48.174;11.562;2022-12-28T02:43:18;4.47;;;4.37;;
27802;SDS011;15182;48.174;11.562;2022-12-28T02:45:51;3.57;;;3.57;;
27802;SDS011;15182;48.174;11.562;2022-12-28T02:48:42;3.80;;;3.70;;
27802;SDS011;15182;48.174;11.562;2022-12-28T02:51:38;4.30;;;4.20;;
27802;SDS011;15182;48.174;11.562;2022-12-28T02:54:24;3.87;;;3.77;;
27802;SDS011;15182;48.174;11.562;2022-12-28T02:57:51;3.47;;;3.47;;
27802;SDS011;15182;48.174;11.562;2022-12-28T03:00:43;3.93;;;3.87;;
27802;SDS011;15182;48.174;11.562;2022-12-28T03:03:26;3.33;;;3.33;;
27802;SDS011;15182;48.174;11.562;2022-12-28T03:06:05;3.60;;;3.50;;
27802;SDS011;15182;48.174;11.562;2022-12-28T03:09:00;3.87;;;3.77;;
27802;SDS011;15182;48.174;11.562;2022-12-28T03:11:42;3.73;;;3.63;;
27802;SDS011;15182;48.174;11.562;2022-12-28T03:14:26;5.40;;;3.30;;
27802;SDS011;15182;48.174;11.562;2022-12-28T03:17:06;3.50;;;3.50;;
27802;SDS011;15182;48.174;11.562;2022-12-28T03:19:58;4.00;;;3.90;;
27802;SDS011;15182;48.174;11.562;2022-12-28T03:22:51;3.60;;;3.60;;
27802;SDS011;15182;48.174;11.562;2022-12-28T03:25:42;3.77;;;3.70;;
27802;SDS011;15182;48.174;11.562;2022-12-28T03:28:38;4.17;;;4.07;;
27802;SDS011;15182;48.174;11.562;2022-12-28T03:31:36;3.57;;;3.57;;
27802;SDS011;15182;48.174;11.562;2022-12-28T03:34:13;4.20;;;4.10;;
27802;SDS011;15182;48.174;11.562;2022-12-28T03:36:50;4.00;;;3.90;;
27802;SDS011;15182;48.174;11.562;2022-12-28T03:39:30;3.80;;;3.70;;
27802;SDS011;15182;48.174;11.562;2022-12-28T03:42:07;3.93;;;3.93;;
27802;SDS011;15182;48.174;11.562;2022-12-28T03:45:04;4.03;;;4.03;;
27802;SDS011;15182;48.174;11.562;2022-12-28T03:47:42;3.60;;;3.60;;
27802;SDS011;15182;48.174;11.562;2022-12-28T03:50:17;3.67;;;3.67;;
27802;SDS011;15182;48.174;11.562;2022-12-28T03:52:50;4.10;;;4.00;;
27802;SDS011;15182;48.174;11.562;2022-12-28T03:55:22;3.83;;;3.83;;
27802;SDS011;15182;48.174;11.562;2022-12-28T03:57:54;3.80;;;3.80;;
27802;SDS011;15182;48.174;11.562;2022-12-28T04:00:28;4.00;;;4.00;;
27802;SDS011;15182;48.174;11.562;2022-12-28T04:03:01;3.73;;;3.73;;
27802;SDS011;15182;48.174;11.562;2022-12-28T04:05:35;4.23;;;4.07;;
27802;SDS011;15182;48.174;11.562;2022-12-28T04:08:07;4.30;;;4.20;;
27802;SDS011;15182;48.174;11.562;2022-12-28T04:10:38;3.40;;;3.40;;
27802;SDS011;15182;48.174;11.562;2022-12-28T04:13:09;4.17;;;4.07;;
27802;SDS011;15182;48.174;11.562;2022-12-28T04:16:01;3.47;;;3.47;;
27802;SDS011;15182;48.174;11.562;2022-12-28T04:18:36;3.43;;;3.33;;
27802;SDS011;15182;48.174;11.562;2022-12-28T04:21:10;3.70;;;3.70;;
27802;SDS011;15182;48.174;11.562;2022-12-28T04:23:44;3.80;;;3.80;;
27802;SDS011;15182;48.174;11.562;2022-12-28T04:26:19;4.13;;;3.63;;
27802;SDS011;15182;48.174;11.562;2022-12-28T04:28:52;3.67;;;3.67;;
27802;SDS011;15182;48.174;11.562;2022-12-28T04:31:37;3.57;;;3.57;;
27802;SDS011;15182;48.174;11.562;2022-12-28T04:34:11;3.40;;;3.40;;
27802;SDS011;15182;48.174;11.562;2022-12-28T04:36:52;3.87;;;3.77;;
27802;SDS011;15182;48.174;11.562;2022-12-28T04:39:24;3.77;;;3.70;;
27802;SDS011;15182;48.174;11.562;2022-12-28T04:41:55;3.30;;;3.30;;
27802;SDS011;15182;48.174;11.562;2022-12-28T04:44:26;3.80;;;3.73;;
27802;SDS011;15182;48.174;11.562;2022-12-28T04:46:58;3.73;;;3.73;;
27802;SDS011;15182;48.174;11.562;2022-12-28T04:49:29;3.73;;;3.53;;
27802;SDS011;15182;48.174;11.562;2022-12-28T04:52:01;3.97;;;3.80;;
27802;SDS011;15182;48.174;11.562;2022-12-28T04:54:33;3.60;;;3.60;;
27802;SDS011;15182;48.174;11.562;2022-12-28T04:57:04;4.07;;;3.97;;
27802;SDS011;15182;48.174;11.562;2022-12-28T04:59:35;3.47;;;3.47;;
27802;SDS011;15182;48.174;11.562;2022-12-28T05:02:07;3.53;;;3.53;;
27802;SDS011;15182;48.174;11.562;2022-12-28T05:04:38;3.80;;;3.70;;
27802;SDS011;15182;48.174;11.562;2022-12-28T05:07:10;3.47;;;3.47;;
27802;SDS011;15182;48.174;11.562;2022-12-28T05:09:42;3.60;;;3.50;;
27802;SDS011;15182;48.174;11.562;2022-12-28T05:12:13;3.77;;;3.67;;
27802;SDS011;15182;48.174;11.562;2022-12-28T05:14:45;3.90;;;3.80;;
27802;SDS011;15182;48.174;11.562;2022-12-28T05:17:16;3.67;;;3.67;;
27802;SDS011;15182;48.174;11.562;2022-12-28T05:19:47;3.33;;;3.33;;
27802;SDS011;15182;48.174;11.562;2022-12-28T05:22:20;3.57;;;3.57;;
27802;SDS011;15182;48.174;11.562;2022-12-28T05:24:51;3.83;;;3.70;;
27802;SDS011;15182;48.174;11.562;2022-12-28T05:27:22;3.50;;;3.50;;
27802;SDS011;15182;48.174;11.562;2022-12-28T05:29:53;3.70;;;3.60;;
27802;SDS011;15182;48.174;11.562;2022-12-28T05:32:25;3.53;;;3.53;;
27802;SDS011;15182;48.174;11.562;2022-12-28T05:34:56;3.30;;;3.30;;
27802;SDS011;15182;48.174;11.562;2022-12-28T05:37:28;3.57;;;3.57;;
27802;SDS011;15182;48.174;11.562;2022-12-28T05:40:00;3.33;;;3.33;;
27802;SDS011;15182;48.174;11.562;2022-12-28T05:42:33;3.43;;;3.43;;
27802;SDS011;15182;48.174;11.562;2022-12-28T05:45:06;3.67;;;3.67;;
27802;SDS011;15182;48.174;11.562;2022-12-28T05:47:38;3.70;;;3.70;;
27802;SDS011;15182;48.174;11.562;2022-12-28T05:50:10;3.77;;;3.67;;
27802;SDS011;15182;48.174;11.562;2022-12-28T05:52:42;3.70;;;3.60;;
27802;SDS011;15182;48.174;11.562;2022-12-28T05:55:13;3.63;;;3.63;;
27802;SDS011;15182;48.174;11.562;2022-12-28T05:57:45;3.83;;;3.73;;
27802;SDS011;15182;48.174;11.562;2022-12-28T06:00:16;3.93;;;3.80;;
27802;SDS011;15182;48.174;11.562;2022-12-28T06:02:48;3.47;;;3.27;;
27802;SDS011;15182;48.174;11.562;2022-12-28T06:05:19;3.73;;;3.63;;
27802;SDS011;15182;48.174;11.562;2022-12-28T06:07:53;3.67;;;3.57;;
27802;SDS011;15182;48.174;11.562;2022-12-28T06:10:24;3.43;;;3.33;;
27802;SDS011;15182;48.174;11.562;2022-12-28T06:12:55;3.67;;;3.57;;
27802;SDS011;15182;48.174;11.562;2022-12-28T06:15:27;3.83;;;3.83;;
27802;SDS011;15182;48.174;11.562;2022-12-28T06:17:58;3.40;;;3.37;;
27802;SDS011;15182;48.174;11.562;2022-12-28T06:20:29;4.00;;;3.70;;
27802;SDS011;15182;48.174;11.562;2022-12-28T06:23:02;3.27;;;3.20;;
27802;SDS011;15182;48.174;11.562;2022-12-28T06:25:33;3.70;;;3.60;;
27802;SDS011;15182;48.174;11.562;2022-12-28T06:28:07;3.63;;;3.53;;
27802;SDS011;15182;48.174;11.562;2022-12-28T06:30:38;3.47;;;3.47;;
27802;SDS011;15182;48.174;11.562;2022-12-28T06:33:11;3.77;;;3.67;;
27802;SDS011;15182;48.174;11.562;2022-12-28T06:35:42;4.10;;;3.90;;
27802;SDS011;15182;48.174;11.562;2022-12-28T06:38:15;4.20;;;4.10;;
27802;SDS011;15182;48.174;11.562;2022-12-28T06:40:46;3.40;;;3.40;;
27802;SDS011;15182;48.174;11.562;2022-12-28T06:43:18;3.47;;;3.47;;
27802;SDS011;15182;48.174;11.562;2022-12-28T06:45:53;3.63;;;3.63;;
27802;SDS011;15182;48.174;11.562;2022-12-28T06:48:23;4.23;;;4.13;;
27802;SDS011;15182;48.174;11.562;2022-12-28T06:50:55;4.13;;;4.03;;
27802;SDS011;15182;48.174;11.562;2022-12-28T06:53:30;3.73;;;3.60;;
27802;SDS011;15182;48.174;11.562;2022-12-28T06:56:04;3.70;;;3.70;;
27802;SDS011;15182;48.174;11.562;2022-12-28T06:58:36;4.10;;;4.00;;
27802;SDS011;15182;48.174;11.562;2022-12-28T07:01:10;3.77;;;3.77;;
27802;SDS011;15182;48.174;11.562;2022-12-28T07:03:44;3.50;;;3.50;;
27802;SDS011;15182;48.174;11.562;2022-12-28T07:06:19;3.77;;;3.60;;
27802;SDS011;15182;48.174;11.562;2022-12-28T07:08:57;3.80;;;3.80;;
27802;SDS011;15182;48.174;11.562;2022-12-28T07:11:32;4.07;;;3.87;;
27802;SDS011;15182;48.174;11.562;2022-12-28T07:14:04;4.03;;;3.93;;
27802;SDS011;15182;48.174;11.562;2022-12-28T07:16:36;3.60;;;3.60;;
27802;SDS011;15182;48.174;11.562;2022-12-28T07:19:07;3.50;;;3.50;;
27802;SDS011;15182;48.174;11.562;2022-12-28T07:21:39;4.10;;;3.90;;
27802;SDS011;15182;48.174;11.562;2022-12-28T07:24:12;3.83;;;3.77;;
27802;SDS011;15182;48.174;11.562;2022-12-28T07:26:43;4.57;;;4.17;;
27802;SDS011;15182;48.174;11.562;2022-12-28T07:29:18;3.73;;;3.63;;
27802;SDS011;15182;48.174;11.562;2022-12-28T07:31:49;7.53;;;3.80;;
27802;SDS011;15182;48.174;11.562;2022-12-28T07:34:20;3.60;;;3.60;;
27802;SDS011;15182;48.174;11.562;2022-12-28T07:36:52;3.83;;;3.73;;
27802;SDS011;15182;48.174;11.562;2022-12-28T07:39:24;3.47;;;3.37;;
27802;SDS011;15182;48.174;11.562;2022-12-28T07:41:56;3.30;;;3.30;;
27802;SDS011;15182;48.174;11.562;2022-12-28T07:44:31;3.53;;;3.43;;
27802;SDS011;15182;48.174;11.562;2022-12-28T07:47:02;4.00;;;3.80;;
27802;SDS011;15182;48.174;11.562;2022-12-28T07:49:34;4.27;;;4.17;;
27802;SDS011;15182;48.174;11.562;2022-12-28T07:52:05;3.50;;;3.50;;
27802;SDS011;15182;48.174;11.562;2022-12-28T07:54:37;4.37;;;4.17;;
27802;SDS011;15182;48.174;11.562;2022-12-28T07:57:09;3.43;;;3.43;;
27802;SDS011;15182;48.174;11.562;2022-12-28T07:59:40;3.70;;;3.70;;
27802;SDS011;15182;48.174;11.562;2022-12-28T08:02:11;4.20;;;3.87;;
27802;SDS011;15182;48.174;11.562;2022-12-28T08:04:45;3.50;;;3.50;;
27802;SDS011;15182;48.174;11.562;2022-12-28T08:07:18;4.10;;;3.97;;
27802;SDS011;15182;48.174;11.562;2022-12-28T08:09:50;4.00;;;3.80;;
27802;SDS011;15182;48.174;11.562;2022-12-28T08:12:22;4.13;;;4.07;;
27802;SDS011;15182;48.174;11.562;2022-12-28T08:14:53;3.50;;;3.50;;
27802;SDS011;15182;48.174;11.562;2022-12-28T08:17:25;3.80;;;3.70;;
27802;SDS011;15182;48.174;11.562;2022-12-28T08:19:57;4.00;;;3.73;;
27802;SDS011;15182;48.174;11.562;2022-12-28T08:22:30;4.57;;;4.47;;
27802;SDS011;15182;48.174;11.562;2022-12-28T08:25:02;4.03;;;3.93;;
27802;SDS011;15182;48.174;11.562;2022-12-28T08:27:35;4.03;;;3.93;;
27802;SDS011;15182;48.174;11.562;2022-12-28T08:30:07;3.73;;;3.73;;
27802;SDS011;15182;48.174;11.562;2022-12-28T08:32:42;6.97;;;4.10;;
27802;SDS011;15182;48.174;11.562;2022-12-28T08:35:13;3.73;;;3.63;;
27802;SDS011;15182;48.174;11.562;2022-12-28T08:37:47;3.60;;;3.60;;
27802;SDS011;15182;48.174;11.562;2022-12-28T08:40:19;3.53;;;3.43;;
27802;SDS011;15182;48.174;11.562;2022-12-28T08:42:55;3.80;;;3.70;;
27802;SDS011;15182;48.174;11.562;2022-12-28T08:45:25;3.80;;;3.60;;
27802;SDS011;15182;48.174;11.562;2022-12-28T08:47:57;4.60;;;3.97;;
27802;SDS011;15182;48.174;11.562;2022-12-28T08:50:28;4.50;;;3.87;;
27802;SDS011;15182;48.174;11.562;2022-12-28T08:53:01;3.30;;;3.30;;
27802;SDS011;15182;48.174;11.562;2022-12-28T08:55:33;3.30;;;3.30;;
27802;SDS011;15182;48.174;11.562;2022-12-28T08:58:04;3.43;;;3.43;;
27802;SDS011;15182;48.174;11.562;2022-12-28T09:00:36;4.07;;;3.90;;
27802;SDS011;15182;48.174;11.562;2022-12-28T09:03:09;3.77;;;3.67;;
27802;SDS011;15182;48.174;11.562;2022-12-28T09:05:40;4.07;;;3.50;;
27802;SDS011;15182;48.174;11.562;2022-12-28T09:08:13;3.20;;;3.20;;
27802;SDS011;15182;48.174;11.562;2022-12-28T09:10:46;3.60;;;3.50;;
27802;SDS011;15182;48.174;11.562;2022-12-28T09:13:18;4.03;;;3.80;;
27802;SDS011;15182;48.174;11.562;2022-12-28T09:15:56;3.40;;;3.40;;
27802;SDS011;15182;48.174;11.562;2022-12-28T09:18:30;3.70;;;3.40;;
27802;SDS011;15182;48.174;11.562;2022-12-28T09:21:03;3.20;;;3.20;;
27802;SDS011;15182;48.174;11.562;2022-12-28T09:23:38;3.33;;;3.33;;
27802;SDS011;15182;48.174;11.562;2022-12-28T09:26:12;3.40;;;3.20;;
27802;SDS011;15182;48.174;11.562;2022-12-28T09:28:46;3.73;;;3.63;;
27802;SDS011;15182;48.174;11.562;2022-12-28T09:31:19;3.23;;;3.23;;
27802;SDS011;15182;48.174;11.562;2022-12-28T09:33:54;3.50;;;3.50;;
27802;SDS011;15182;48.174;11.562;2022-12-28T09:36:27;3.47;;;3.47;;
27802;SDS011;15182;48.174;11.562;2022-12-28T09:39:03;3.37;;;3.30;;
27802;SDS011;15182;48.174;11.562;2022-12-28T09:41:40;3.50;;;3.50;;
27802;SDS011;15182;48.174;11.562;2022-12-28T09:44:29;3.20;;;3.20;;
27802;SDS011;15182;48.174;11.562;2022-12-28T09:47:25;3.53;;;3.40;;
27802;SDS011;15182;48.174;11.562;2022-12-28T09:50:05;3.00;;;3.00;;
27802;SDS011;15182;48.174;11.562;2022-12-28T09:53:00;2.90;;;2.80;;
27802;SDS011;15182;48.174;11.562;2022-12-28T09:55:47;3.37;;;3.10;;
27802;SDS011;15182;48.174;11.562;2022-12-28T09:58:25;3.30;;;3.10;;
27802;SDS011;15182;48.174;11.562;2022-12-28T10:01:00;3.00;;;2.90;;
27802;SDS011;15182;48.174;11.562;2022-12-28T10:03:39;3.10;;;3.10;;
27802;SDS011;15182;48.174;11.562;2022-12-28T10:06:14;3.47;;;3.47;;
27802;SDS011;15182;48.174;11.562;2022-12-28T10:08:51;2.93;;;2.83;;
27802;SDS011;15182;48.174;11.562;2022-12-28T10:11:24;3.13;;;3.13;;
27802;SDS011;15182;48.174;11.562;2022-12-28T10:14:02;3.23;;;3.23;;
27802;SDS011;15182;48.174;11.562;2022-12-28T10:16:46;2.93;;;2.93;;
27802;SDS011;15182;48.174;11.562;2022-12-28T10:19:18;3.23;;;3.23;;
27802;SDS011;15182;48.174;11.562;2022-12-28T10:21:57;3.27;;;3.27;;
27802;SDS011;15182;48.174;11.562;2022-12-28T10:24:31;2.90;;;2.90;;
27802;SDS011;15182;48.174;11.562;2022-12-28T10:27:06;3.20;;;3.00;;
27802;SDS011;15182;48.174;11.562;2022-12-28T10:29:47;3.13;;;3.03;;
27802;SDS011;15182;48.174;11.562;2022-12-28T10:32:18;3.90;;;3.57;;
27802;SDS011;15182;48.174;11.562;2022-12-28T10:34:54;3.40;;;3.33;;
27802;SDS011;15182;48.174;11.562;2022-12-28T10:37:30;3.50;;;3.40;;
27802;SDS011;15182;48.174;11.562;2022-12-28T10:40:08;3.13;;;3.10;;
27802;SDS011;15182;48.174;11.562;2022-12-28T10:42:52;3.33;;;3.23;;
27802;SDS011;15182;48.174;11.562;2022-12-28T10:45:31;3.47;;;3.37;;
27802;SDS011;15182;48.174;11.562;2022-12-28T10:48:09;3.70;;;3.50;;
27802;SDS011;15182;48.174;11.562;2022-12-28T10:50:49;3.30;;;2.93;;
27802;SDS011;15182;48.174;11.562;2022-12-28T10:53:26;3.20;;;3.00;;
27802;SDS011;15182;48.174;11.562;2022-12-28T10:56:16;3.17;;;3.17;;
27802;SDS011;15182;48.174;11.562;2022-12-28T10:58:51;3.73;;;3.53;;
27802;SDS011;15182;48.174;11.562;2022-12-28T11:01:51;3.00;;;3.00;;
27802;SDS011;15182;48.174;11.562;2022-12-28T11:04:52;5.97;;;4.17;;
27802;SDS011;15182;48.174;11.562;2022-12-28T11:07:27;4.83;;;4.40;;
27802;SDS011;15182;48.174;11.562;2022-12-28T11:12:54;3.93;;;3.63;;
27802;SDS011;15182;48.174;11.562;2022-12-28T11:15:27;3.43;;;3.33;;
27802;SDS011;15182;48.174;11.562;2022-12-28T11:18:10;3.73;;;3.63;;
27802;SDS011;15182;48.174;11.562;2022-12-28T11:20:45;3.40;;;3.23;;
27802;SDS011;15182;48.174;11.562;2022-12-28T11:23:19;3.53;;;3.43;;
27802;SDS011;15182;48.174;11.562;2022-12-28T11:25:56;3.53;;;3.43;;
27802;SDS011;15182;48.174;11.562;2022-12-28T11:28:28;3.20;;;3.20;;
27802;SDS011;15182;48.174;11.562;2022-12-28T11:30:59;3.33;;;3.23;;
27802;SDS011;15182;48.174;11.562;2022-12-28T11:33:36;4.10;;;4.00;;
27802;SDS011;15182;48.174;11.562;2022-12-28T11:36:15;3.37;;;3.27;;
27802;SDS011;15182;48.174;11.562;2022-12-28T11:38:50;3.40;;;3.27;;
27802;SDS011;15182;48.174;11.562;2022-12-28T11:41:40;3.40;;;3.33;;
27802;SDS011;15182;48.174;11.562;2022-12-28T11:44:18;3.20;;;3.10;;
27802;SDS011;15182;48.174;11.562;2022-12-28T11:47:00;3.33;;;3.13;;
27802;SDS011;15182;48.174;11.562;2022-12-28T11:49:46;3.03;;;2.87;;
27802;SDS011;15182;48.174;11.562;2022-12-28T11:52:32;3.13;;;3.13;;
27802;SDS011;15182;48.174;11.562;2022-12-28T11:55:34;3.47;;;3.27;;
27802;SDS011;15182;48.174;11.562;2022-12-28T11:58:33;2.93;;;2.83;;
27802;SDS011;15182;48.174;11.562;2022-12-28T12:01:46;2.70;;;2.70;;
27802;SDS011;15182;48.174;11.562;2022-12-28T12:16:15;2.80;;;2.70;;
27802;SDS011;15182;48.174;11.562;2022-12-28T12:18:49;2.57;;;2.57;;
27802;SDS011;15182;48.174;11.562;2022-12-28T12:21:27;2.90;;;2.83;;
27802;SDS011;15182;48.174;11.562;2022-12-28T12:24:02;2.80;;;2.80;;
27802;SDS011;15182;48.174;11.562;2022-12-28T12:26:45;2.80;;;2.70;;
27802;SDS011;15182;48.174;11.562;2022-12-28T12:29:24;4.47;;;2.87;;
27802;SDS011;15182;48.174;11.562;2022-12-28T12:32:01;3.67;;;3.43;;
27802;SDS011;15182;48.174;11.562;2022-12-28T12:34:41;3.00;;;2.90;;
27802;SDS011;15182;48.174;11.562;2022-12-28T12:43:30;2.40;;;2.40;;
27802;SDS011;15182;48.174;11.562;2022-12-28T12:49:27;2.47;;;2.47;;
27802;SDS011;15182;48.174;11.562;2022-12-28T12:52:15;2.70;;;2.60;;
27802;SDS011;15182;48.174;11.562;2022-12-28T12:54:57;2.60;;;2.60;;
27802;SDS011;15182;48.174;11.562;2022-12-28T12:57:42;2.57;;;2.47;;
27802;SDS011;15182;48.174;11.562;2022-12-28T13:00:22;3.70;;;3.03;;
27802;SDS011;15182;48.174;11.562;2022-12-28T13:03:08;2.67;;;2.67;;
27802;SDS011;15182;48.174;11.562;2022-12-28T13:05:49;2.40;;;2.40;;
27802;SDS011;15182;48.174;11.562;2022-12-28T13:08:26;2.60;;;2.60;;
27802;SDS011;15182;48.174;11.562;2022-12-28T13:11:06;3.00;;;2.73;;
27802;SDS011;15182;48.174;11.562;2022-12-28T13:13:42;2.53;;;2.43;;
27802;SDS011;15182;48.174;11.562;2022-12-28T13:16:18;2.33;;;2.33;;
27802;SDS011;15182;48.174;11.562;2022-12-28T13:18:53;2.43;;;2.43;;
27802;SDS011;15182;48.174;11.562;2022-12-28T13:21:37;2.30;;;2.30;;
27802;SDS011;15182;48.174;11.562;2022-12-28T13:24:18;2.67;;;2.57;;
27802;SDS011;15182;48.174;11.562;2022-12-28T13:26:52;2.93;;;2.77;;
27802;SDS011;15182;48.174;11.562;2022-12-28T13:29:27;2.60;;;2.50;;
27802;SDS011;15182;48.174;11.562;2022-12-28T13:32:04;2.70;;;2.60;;
27802;SDS011;15182;48.174;11.562;2022-12-28T13:34:50;2.47;;;2.47;;
27802;SDS011;15182;48.174;11.562;2022-12-28T13:37:21;2.90;;;2.80;;
27802;SDS011;15182;48.174;11.562;2022-12-28T13:40:07;2.60;;;2.50;;
27802;SDS011;15182;48.174;11.562;2022-12-28T13:42:43;2.27;;;2.27;;
27802;SDS011;15182;48.174;11.562;2022-12-28T13:45:26;2.70;;;2.70;;
27802;SDS011;15182;48.174;11.562;2022-12-28T13:47:58;2.50;;;2.50;;
27802;SDS011;15182;48.174;11.562;2022-12-28T13:50:33;2.50;;;2.50;;
27802;SDS011;15182;48.174;11.562;2022-12-28T13:53:09;2.30;;;2.30;;
27802;SDS011;15182;48.174;11.562;2022-12-28T13:55:53;2.30;;;2.30;;
27802;SDS011;15182;48.174;11.562;2022-12-28T13:58:30;2.20;;;2.20;;
27802;SDS011;15182;48.174;11.562;2022-12-28T14:01:06;2.37;;;2.37;;
27802;SDS011;15182;48.174;11.562;2022-12-28T14:03:43;2.93;;;2.83;;
27802;SDS011;15182;48.174;11.562;2022-12-28T14:06:14;2.43;;;2.43;;
27802;SDS011;15182;48.174;11.562;2022-12-28T14:08:47;2.53;;;2.53;;
27802;SDS011;15182;48.174;11.562;2022-12-28T14:11:19;2.40;;;2.40;;
27802;SDS011;15182;48.174;11.562;2022-12-28T14:13:51;5.40;;;2.77;;
27802;SDS011;15182;48.174;11.562;2022-12-28T14:16:26;2.50;;;2.50;;
27802;SDS011;15182;48.174;11.562;2022-12-28T14:18:58;2.40;;;2.30;;
27802;SDS011;15182;48.174;11.562;2022-12-28T14:21:31;3.47;;;3.13;;
27802;SDS011;15182;48.174;11.562;2022-12-28T14:24:07;2.40;;;2.40;;
27802;SDS011;15182;48.174;11.562;2022-12-28T14:26:44;2.40;;;2.40;;
27802;SDS011;15182;48.174;11.562;2022-12-28T14:29:20;2.80;;;2.80;;
27802;SDS011;15182;48.174;11.562;2022-12-28T14:31:57;3.03;;;2.53;;
27802;SDS011;15182;48.174;11.562;2022-12-28T14:34:32;2.90;;;2.90;;
27802;SDS011;15182;48.174;11.562;2022-12-28T14:37:04;2.30;;;2.30;;
27802;SDS011;15182;48.174;11.562;2022-12-28T14:39:49;2.60;;;2.60;;
27802;SDS011;15182;48.174;11.562;2022-12-28T14:42:26;2.60;;;2.60;;
27802;SDS011;15182;48.174;11.562;2022-12-28T14:44:58;2.53;;;2.53;;
27802;SDS011;15182;48.174;11.562;2022-12-28T14:50:57;2.63;;;2.63;;
27802;SDS011;15182;48.174;11.562;2022-12-28T14:53:32;2.77;;;2.70;;
27802;SDS011;15182;48.174;11.562;2022-12-28T14:56:04;2.60;;;2.60;;
27802;SDS011;15182;48.174;11.562;2022-12-28T14:58:40;2.57;;;2.53;;
27802;SDS011;15182;48.174;11.562;2022-12-28T15:01:17;2.87;;;2.77;;
27802;SDS011;15182;48.174;11.562;2022-12-28T15:03:52;2.97;;;2.87;;
27802;SDS011;15182;48.174;11.562;2022-12-28T15:06:25;3.30;;;3.10;;
27802;SDS011;15182;48.174;11.562;2022-12-28T15:08:59;3.13;;;3.03;;
27802;SDS011;15182;48.174;11.562;2022-12-28T15:11:33;2.60;;;2.60;;
27802;SDS011;15182;48.174;11.562;2022-12-28T15:14:04;3.20;;;3.10;;
27802;SDS011;15182;48.174;11.562;2022-12-28T15:16:35;3.10;;;3.00;;
27802;SDS011;15182;48.174;11.562;2022-12-28T15:19:09;3.03;;;2.93;;
27802;SDS011;15182;48.174;11.562;2022-12-28T15:21:40;2.93;;;2.87;;
27802;SDS011;15182;48.174;11.562;2022-12-28T15:24:11;2.93;;;2.90;;
27802;SDS011;15182;48.174;11.562;2022-12-28T15:26:42;2.60;;;2.60;;
27802;SDS011;15182;48.174;11.562;2022-12-28T15:29:13;2.53;;;2.53;;
27802;SDS011;15182;48.174;11.562;2022-12-28T15:31:45;2.63;;;2.63;;
27802;SDS011;15182;48.174;11.562;2022-12-28T15:34:17;2.63;;;2.63;;
27802;SDS011;15182;48.174;11.562;2022-12-28T15:36:49;3.00;;;2.77;;
27802;SDS011;15182;48.174;11.562;2022-12-28T15:39:20;2.70;;;2.70;;
27802;SDS011;15182;48.174;11.562;2022-12-28T15:41:51;3.07;;;2.80;;
27802;SDS011;15182;48.174;11.562;2022-12-28T15:44:22;2.83;;;2.80;;
27802;SDS011;15182;48.174;11.562;2022-12-28T15:46:54;4.57;;;4.27;;
27802;SDS011;15182;48.174;11.562;2022-12-28T15:49:26;4.33;;;4.17;;
27802;SDS011;15182;48.174;11.562;2022-12-28T15:51:58;5.70;;;4.60;;
27802;SDS011;15182;48.174;11.562;2022-12-28T15:54:29;4.50;;;4.07;;